createdAt,value
2022-12-28T00:00:25.934Z,28.07
2022-12-28T00:02:55.953Z,27.00
2022-12-28T00:05:26.380Z,23.60
2022-12-28T00:07:56.348Z,25.23
2022-12-28T00:11:08.344Z,25.77
2022-12-28T00:13:18.929Z,24.67
2022-12-28T00:15:48.929Z,22.73
2022-12-28T00:18:19.200Z,26.43
2022-12-28T00:21:00.030Z,30.17
2022-12-28T00:23:30.973Z,24.77
2022-12-28T00:26:13.868Z,24.70
2022-12-28T00:28:44.179Z,28.57
2022-12-28T00:31:14.544Z,24.50
2022-12-28T00:33:45.012Z,26.30
2022-12-28T00:36:17.883Z,29.07
2022-12-28T00:38:48.318Z,18.33
2022-12-28T00:41:21.046Z,24.97
2022-12-28T00:43:51.127Z,25.27
2022-12-28T00:46:21.288Z,20.33
2022-12-28T00:48:51.286Z,20.77
2022-12-28T00:51:23.799Z,28.40
2022-12-28T00:53:54.032Z,22.77
2022-12-28T00:56:26.795Z,25.30
2022-12-28T00:59:01.880Z,24.63
2022-12-28T01:01:32.916Z,27.93
2022-12-28T01:04:03.422Z,24.93
2022-12-28T01:06:33.631Z,25.50
2022-12-28T01:09:03.850Z,27.43
2022-12-28T01:11:36.676Z,23.37
2022-12-28T01:14:06.764Z,23.50
2022-12-28T01:16:39.439Z,29.90
2022-12-28T01:19:13.821Z,26.80
2022-12-28T01:21:44.587Z,22.27
2022-12-28T01:24:14.637Z,24.03
2022-12-28T01:26:47.290Z,20.60
2022-12-28T01:29:17.291Z,27.00
2022-12-28T01:31:47.376Z,19.60
2022-12-28T01:34:17.466Z,21.00
2022-12-28T01:36:49.895Z,29.50
2022-12-28T01:39:19.956Z,23.20
2022-12-28T01:41:52.640Z,24.40
2022-12-28T01:44:48.990Z,24.33
2022-12-28T01:47:24.946Z,24.47
2022-12-28T01:50:02.960Z,36.37
2022-12-28T01:52:41.975Z,23.60
2022-12-28T01:55:17.514Z,25.30
2022-12-28T01:57:57.047Z,24.87
2022-12-28T02:00:27.168Z,29.30
2022-12-28T02:03:02.976Z,21.53
2022-12-28T02:05:40.757Z,28.73
2022-12-28T02:08:18.380Z,23.53
2022-12-28T02:10:50.429Z,24.87
2022-12-28T02:13:26.703Z,26.27
2022-12-28T02:16:00.935Z,20.73
2022-12-28T02:18:31.321Z,26.30
2022-12-28T02:21:23.532Z,24.27
2022-12-28T02:24:43.451Z,24.20
2022-12-28T02:27:26.540Z,27.93
2022-12-28T02:30:08.096Z,19.80
2022-12-28T02:32:58.104Z,23.47
2022-12-28T02:35:41.622Z,22.83
2022-12-28T02:38:24.608Z,27.13
2022-12-28T02:41:02.789Z,28.27
2022-12-28T02:43:35.476Z,22.90
2022-12-28T02:46:34.454Z,32.93
2022-12-28T02:49:31.325Z,26.13
2022-12-28T02:52:16.913Z,22.00
2022-12-28T02:55:40.871Z,20.17
2022-12-28T02:58:44.792Z,24.03
2022-12-28T03:01:38.941Z,25.87
2022-12-28T03:04:21.025Z,23.63
2022-12-28T03:07:17.555Z,27.40
2022-12-28T03:09:55.193Z,25.30
2022-12-28T03:12:32.511Z,23.93
2022-12-28T03:15:12.352Z,33.13
2022-12-28T03:17:59.681Z,27.13
2022-12-28T03:20:47.180Z,22.97
2022-12-28T03:23:35.212Z,22.73
2022-12-28T03:26:24.407Z,22.93
2022-12-28T03:29:10.118Z,18.97
2022-12-28T03:31:44.502Z,27.10
2022-12-28T03:34:20.323Z,18.83
2022-12-28T03:37:02.382Z,20.83
2022-12-28T03:39:45.615Z,24.23
2022-12-28T03:42:34.227Z,22.63
2022-12-28T03:45:15.005Z,21.20
2022-12-28T03:48:08.686Z,24.73
2022-12-28T03:50:45.744Z,22.70
2022-12-28T03:53:19.432Z,20.93
2022-12-28T03:55:49.583Z,19.90
2022-12-28T03:58:24.642Z,23.33
2022-12-28T04:00:55.765Z,20.47
2022-12-28T04:03:26.273Z,19.97
2022-12-28T04:05:58.910Z,30.50
2022-12-28T04:08:29.014Z,21.37
2022-12-28T04:11:01.893Z,23.73
2022-12-28T04:13:33.440Z,20.37
2022-12-28T04:16:13.718Z,21.43
2022-12-28T04:18:45.689Z,22.27
2022-12-28T04:21:19.291Z,21.03
2022-12-28T04:23:49.927Z,20.07
2022-12-28T04:26:23.579Z,15.60
2022-12-28T04:29:00.787Z,19.63
2022-12-28T04:31:49.942Z,21.20
2022-12-28T04:34:22.704Z,19.07
2022-12-28T04:37:03.263Z,19.03
2022-12-28T04:39:54.298Z,17.53
2022-12-28T04:42:23.175Z,24.63
2022-12-28T04:44:53.216Z,20.20
2022-12-28T04:47:23.327Z,14.97
2022-12-28T04:49:53.300Z,14.87
2022-12-28T04:52:25.826Z,30.97
2022-12-28T04:54:55.747Z,27.30
2022-12-28T04:57:25.682Z,32.67
2022-12-28T04:59:55.632Z,34.03
2022-12-28T05:02:25.665Z,24.63
2022-12-28T05:04:55.692Z,23.77
2022-12-28T05:07:28.238Z,27.50
2022-12-28T05:09:58.250Z,23.63
2022-12-28T05:12:28.507Z,21.97
2022-12-28T05:14:58.476Z,22.13
2022-12-28T05:17:28.445Z,18.97
2022-12-28T05:19:58.402Z,18.20
2022-12-28T05:22:33.145Z,19.83
2022-12-28T05:25:06.965Z,21.97
2022-12-28T05:27:37.905Z,20.50
2022-12-28T05:30:10.396Z,28.70
2022-12-28T05:32:40.427Z,21.00
2022-12-28T05:35:12.556Z,20.30
2022-12-28T05:37:45.143Z,24.57
2022-12-28T05:40:15.372Z,20.50
2022-12-28T05:42:51.114Z,26.60
2022-12-28T05:45:21.658Z,20.43
2022-12-28T05:47:51.638Z,24.33
2022-12-28T05:50:21.570Z,24.30
2022-12-28T05:52:54.094Z,23.70
2022-12-28T05:55:24.756Z,20.53
2022-12-28T05:57:57.022Z,20.63
2022-12-28T06:00:26.976Z,21.67
2022-12-28T06:02:58.407Z,27.17
2022-12-28T06:05:28.451Z,19.10
2022-12-28T06:08:01.189Z,20.77
2022-12-28T06:10:31.240Z,20.27
2022-12-28T06:13:01.153Z,21.07
2022-12-28T06:15:31.142Z,18.87
2022-12-28T06:18:01.076Z,22.93
2022-12-28T06:20:31.058Z,26.90
2022-12-28T06:23:03.825Z,21.57
2022-12-28T06:25:33.732Z,19.20
2022-12-28T06:28:03.683Z,24.90
2022-12-28T06:30:33.639Z,20.47
2022-12-28T06:33:03.549Z,28.67
2022-12-28T06:35:33.533Z,23.70
2022-12-28T06:38:06.135Z,26.63
2022-12-28T06:41:10.882Z,25.33
2022-12-28T06:43:26.029Z,24.63
2022-12-28T06:45:59.644Z,17.43
2022-12-28T06:48:29.907Z,19.20
2022-12-28T06:51:01.615Z,20.67
2022-12-28T06:53:37.163Z,23.97
2022-12-28T06:56:10.533Z,31.07
2022-12-28T06:58:41.125Z,21.67
2022-12-28T07:01:13.646Z,22.03
2022-12-28T07:03:43.922Z,21.63
2022-12-28T07:06:16.585Z,21.43
2022-12-28T07:08:50.487Z,23.57
2022-12-28T07:11:23.367Z,18.70
2022-12-28T07:13:53.309Z,25.10
2022-12-28T07:16:25.247Z,70.00
2022-12-28T07:18:55.485Z,29.77
2022-12-28T07:21:28.414Z,25.83
2022-12-28T07:24:01.686Z,25.77
2022-12-28T07:26:34.953Z,27.13
2022-12-28T07:29:09.060Z,23.20
2022-12-28T07:31:45.843Z,23.43
2022-12-28T07:34:18.703Z,26.57
2022-12-28T07:36:48.624Z,19.80
2022-12-28T07:39:21.147Z,19.93
2022-12-28T07:41:51.279Z,22.00
2022-12-28T07:44:29.438Z,22.30
2022-12-28T07:46:59.916Z,26.83
2022-12-28T07:49:29.969Z,19.20
2022-12-28T07:51:59.912Z,21.73
2022-12-28T07:54:32.598Z,19.33
2022-12-28T07:57:02.528Z,16.27
2022-12-28T07:59:32.522Z,20.67
2022-12-28T08:02:02.774Z,25.73
2022-12-28T08:04:32.839Z,18.80
2022-12-28T08:07:02.790Z,22.50
2022-12-28T08:09:35.575Z,18.30
2022-12-28T08:12:05.639Z,21.70
2022-12-28T08:14:35.591Z,19.77
2022-12-28T08:17:05.543Z,21.70
2022-12-28T08:19:36.066Z,19.67
2022-12-28T08:22:08.803Z,15.77
2022-12-28T08:24:41.338Z,16.13
2022-12-28T08:27:12.089Z,20.60
2022-12-28T08:29:42.260Z,22.80
2022-12-28T08:32:12.219Z,27.50
2022-12-28T08:34:42.194Z,19.23
2022-12-28T08:37:12.208Z,21.77
2022-12-28T08:39:44.705Z,27.27
2022-12-28T08:42:14.767Z,19.60
2022-12-28T08:44:44.714Z,19.17
2022-12-28T08:47:14.750Z,21.20
2022-12-28T08:49:44.720Z,28.67
2022-12-28T08:52:14.690Z,30.53
2022-12-28T08:54:47.211Z,27.70
2022-12-28T08:57:17.179Z,26.17
2022-12-28T08:59:47.145Z,21.47
2022-12-28T09:02:17.256Z,23.27
2022-12-28T09:04:47.622Z,14.33
2022-12-28T09:07:17.575Z,11.17
2022-12-28T09:09:50.146Z,16.00
2022-12-28T09:12:20.095Z,11.70
2022-12-28T09:14:50.174Z,15.03
2022-12-28T09:17:20.227Z,18.60
2022-12-28T09:19:50.210Z,20.27
2022-12-28T09:22:20.174Z,17.10
2022-12-28T09:24:52.771Z,16.73
2022-12-28T09:27:22.712Z,15.80
2022-12-28T09:29:52.686Z,15.30
2022-12-28T09:32:22.672Z,17.07
2022-12-28T09:34:52.627Z,15.93
2022-12-28T09:37:22.617Z,11.80
2022-12-28T09:40:01.006Z,12.23
2022-12-28T09:42:33.496Z,14.97
2022-12-28T09:45:08.514Z,12.90
2022-12-28T09:47:46.303Z,13.57
2022-12-28T09:50:35.155Z,11.57
2022-12-28T09:53:24.607Z,9.97
2022-12-28T09:56:05.721Z,10.47
2022-12-28T09:58:46.464Z,7.97
2022-12-28T10:01:21.321Z,9.53
2022-12-28T10:03:52.033Z,12.63
2022-12-28T10:06:28.397Z,5.87
2022-12-28T10:09:03.049Z,8.50
2022-12-28T10:11:41.116Z,7.10
2022-12-28T10:14:22.682Z,5.60
2022-12-28T10:16:52.775Z,6.67
2022-12-28T10:19:27.742Z,12.67
2022-12-28T10:22:03.884Z,6.40
2022-12-28T10:24:34.937Z,6.93
2022-12-28T10:27:10.770Z,6.00
2022-12-28T10:29:40.939Z,7.10
2022-12-28T10:32:12.817Z,5.90
2022-12-28T10:34:58.977Z,7.13
2022-12-28T10:37:33.592Z,8.77
2022-12-28T10:40:09.531Z,6.40
2022-12-28T10:42:46.646Z,8.40
2022-12-28T10:45:23.281Z,7.00
2022-12-28T10:47:56.359Z,6.57
2022-12-28T10:50:54.436Z,6.20
2022-12-28T10:53:32.949Z,6.10
2022-12-28T10:56:22.218Z,13.40
2022-12-28T10:58:57.211Z,11.37
2022-12-28T11:01:31.130Z,4.93
2022-12-28T11:04:07.113Z,9.83
2022-12-28T11:06:39.540Z,7.90
2022-12-28T11:09:19.668Z,8.03
2022-12-28T11:11:52.399Z,10.13
2022-12-28T11:14:34.646Z,6.23
2022-12-28T11:17:18.482Z,10.83
2022-12-28T11:19:51.582Z,6.63
2022-12-28T11:22:29.018Z,7.53
2022-12-28T11:25:02.831Z,8.00
2022-12-28T11:27:32.883Z,9.20
2022-12-28T11:30:09.080Z,11.60
2022-12-28T11:32:51.717Z,9.67
2022-12-28T11:35:25.509Z,8.10
2022-12-28T11:37:59.272Z,8.00
2022-12-28T11:40:55.295Z,8.83
2022-12-28T11:43:53.879Z,7.40
2022-12-28T11:47:01.799Z,10.73
2022-12-28T11:49:36.181Z,9.17
2022-12-28T11:52:47.180Z,8.80
2022-12-28T11:55:49.187Z,12.63
2022-12-28T11:59:08.744Z,17.47
2022-12-28T12:01:50.951Z,7.60
2022-12-28T12:04:46.706Z,6.90
2022-12-28T12:07:48.690Z,13.27
2022-12-28T12:10:39.050Z,7.83
2022-12-28T12:13:44.731Z,8.17
2022-12-28T12:16:29.181Z,8.83
2022-12-28T12:19:04.046Z,8.53
2022-12-28T12:21:39.489Z,6.57
2022-12-28T12:24:28.154Z,5.97
2022-12-28T12:27:11.883Z,6.27
2022-12-28T12:29:46.960Z,7.53
2022-12-28T12:32:26.659Z,5.57
2022-12-28T12:35:06.856Z,8.50
2022-12-28T12:37:48.867Z,6.00
2022-12-28T12:40:53.444Z,8.97
2022-12-28T12:43:40.428Z,7.03
2022-12-28T12:47:05.694Z,5.37
2022-12-28T12:49:55.102Z,6.47
2022-12-28T12:52:43.393Z,8.00
2022-12-28T12:55:31.457Z,8.50
2022-12-28T12:58:11.932Z,9.43
2022-12-28T13:00:55.708Z,6.90
2022-12-28T13:03:41.518Z,11.70
2022-12-28T13:06:15.870Z,7.53
2022-12-28T13:08:54.547Z,8.13
2022-12-28T13:11:26.481Z,5.93
2022-12-28T13:13:57.792Z,15.93
2022-12-28T13:16:32.705Z,17.53
2022-12-28T13:19:05.676Z,6.03
2022-12-28T13:21:45.801Z,5.83
2022-12-28T13:24:28.034Z,8.93
2022-12-28T13:26:59.944Z,5.87
2022-12-28T13:29:35.940Z,4.60
2022-12-28T13:32:06.009Z,6.20
2022-12-28T13:34:38.652Z,12.17
2022-12-28T13:37:19.075Z,12.13
2022-12-28T13:39:52.202Z,6.70
2022-12-28T13:42:31.483Z,7.67
2022-12-28T13:45:05.767Z,6.37
2022-12-28T13:47:42.414Z,7.73
2022-12-28T13:50:19.017Z,8.87
2022-12-28T13:52:54.789Z,11.63
2022-12-28T13:55:34.746Z,8.57
2022-12-28T13:58:11.563Z,5.50
2022-12-28T14:00:46.812Z,5.17
2022-12-28T14:03:19.146Z,4.70
2022-12-28T14:05:55.108Z,6.47
2022-12-28T14:08:26.099Z,6.10
2022-12-28T14:10:59.307Z,5.40
2022-12-28T14:13:29.995Z,6.57
2022-12-28T14:16:00.590Z,7.50
2022-12-28T14:18:31.527Z,10.77
2022-12-28T14:21:04.059Z,9.30
2022-12-28T14:23:36.663Z,8.67
2022-12-28T14:26:13.204Z,8.70
2022-12-28T14:28:48.403Z,8.90
2022-12-28T14:31:29.599Z,10.17
2022-12-28T14:34:03.520Z,7.00
2022-12-28T14:36:36.690Z,10.63
2022-12-28T14:39:07.760Z,20.60
2022-12-28T14:41:48.288Z,14.07
2022-12-28T14:44:25.252Z,16.07
2022-12-28T14:46:55.908Z,13.17
2022-12-28T14:49:40.081Z,9.97
2022-12-28T14:52:37.395Z,12.57
2022-12-28T14:55:28.980Z,14.73
2022-12-28T14:58:07.508Z,12.50
2022-12-28T15:00:39.790Z,9.83
2022-12-28T15:03:23.845Z,19.70
2022-12-28T15:05:55.933Z,9.80
2022-12-28T15:08:27.387Z,9.90
2022-12-28T15:11:00.550Z,8.33
2022-12-28T15:13:33.190Z,13.37
2022-12-28T15:16:06.230Z,10.07
2022-12-28T15:18:37.691Z,8.80
2022-12-28T15:21:08.975Z,12.40
2022-12-28T15:23:39.002Z,13.50
2022-12-28T15:26:10.849Z,10.50
2022-12-28T15:28:44.689Z,11.30
2022-12-28T15:31:17.825Z,10.47
2022-12-28T15:33:49.187Z,10.70
2022-12-28T15:36:22.041Z,17.67
2022-12-28T15:38:52.681Z,9.67
2022-12-28T15:41:35.173Z,13.23
2022-12-28T15:44:08.732Z,10.53
2022-12-28T15:46:38.840Z,10.73
2022-12-28T15:49:10.871Z,17.43
2022-12-28T15:51:41.815Z,13.20
2022-12-28T15:54:11.829Z,11.30
2022-12-28T15:56:44.392Z,18.97
2022-12-28T15:59:17.863Z,10.17
2022-12-28T16:01:48.963Z,8.03
2022-12-28T16:04:19.465Z,14.87
2022-12-28T16:06:49.470Z,14.57
2022-12-28T16:09:19.446Z,20.13
2022-12-28T16:11:54.830Z,20.07
2022-12-28T16:14:27.884Z,15.60
2022-12-28T16:16:58.017Z,14.80
2022-12-28T16:19:28.853Z,12.70
2022-12-28T16:21:58.857Z,17.57
2022-12-28T16:24:29.717Z,14.30
2022-12-28T16:27:00.058Z,17.73
2022-12-28T16:29:32.650Z,23.73
2022-12-28T16:32:04.188Z,14.23
2022-12-28T16:34:34.350Z,15.40
2022-12-28T16:37:04.290Z,15.03
2022-12-28T16:39:34.762Z,20.60
2022-12-28T16:42:04.824Z,19.60
2022-12-28T16:44:37.497Z,16.83
2022-12-28T16:47:11.331Z,16.43
2022-12-28T16:49:43.013Z,17.93
2022-12-28T16:52:13.038Z,14.43
2022-12-28T16:54:43.033Z,16.13
2022-12-28T16:57:13.122Z,18.23
2022-12-28T16:59:45.641Z,16.60
2022-12-28T17:02:17.260Z,13.77
2022-12-28T17:04:47.350Z,18.37
2022-12-28T17:07:17.281Z,21.83
2022-12-28T17:09:50.315Z,17.90
2022-12-28T17:12:20.534Z,24.23
2022-12-28T17:14:53.334Z,20.73
2022-12-28T17:17:23.274Z,17.73
2022-12-28T17:19:53.293Z,22.10
2022-12-28T17:22:23.249Z,17.27
2022-12-28T17:24:53.245Z,18.90
2022-12-28T17:27:23.830Z,24.37
2022-12-28T17:29:56.448Z,19.03
2022-12-28T17:32:26.411Z,17.83
2022-12-28T17:34:56.436Z,18.07
2022-12-28T17:37:26.426Z,14.50
2022-12-28T17:39:56.379Z,14.47
2022-12-28T17:42:26.369Z,16.97
2022-12-28T17:44:59.012Z,14.30
2022-12-28T17:47:29.218Z,12.50
2022-12-28T17:49:59.209Z,19.47
2022-12-28T17:52:30.166Z,16.47
2022-12-28T17:55:00.206Z,16.00
2022-12-28T17:57:35.355Z,14.13
2022-12-28T18:00:13.780Z,15.13
2022-12-28T18:02:44.386Z,15.07
2022-12-28T18:05:14.674Z,23.23
2022-12-28T18:07:44.669Z,24.43
2022-12-28T18:10:14.628Z,19.60
2022-12-28T18:12:44.524Z,32.70
2022-12-28T18:15:17.516Z,23.20
2022-12-28T18:17:47.473Z,21.43
2022-12-28T18:20:18.758Z,24.33
2022-12-28T18:22:48.769Z,17.90
2022-12-28T18:25:19.090Z,15.30
2022-12-28T18:27:49.132Z,12.50
2022-12-28T18:30:21.709Z,12.83
2022-12-28T18:32:51.656Z,11.50
2022-12-28T18:35:24.936Z,11.10
2022-12-28T18:37:55.309Z,9.70
2022-12-28T18:40:25.370Z,12.40
2022-12-28T18:42:55.451Z,11.00
2022-12-28T18:45:28.017Z,7.63
2022-12-28T18:47:58.089Z,8.40
2022-12-28T18:50:28.262Z,9.03
2022-12-28T18:52:58.300Z,10.17
2022-12-28T18:55:28.360Z,11.37
2022-12-28T18:57:58.410Z,10.37
2022-12-28T19:00:31.194Z,13.97
2022-12-28T19:03:01.308Z,14.47
2022-12-28T19:05:31.348Z,14.67
2022-12-28T19:08:01.292Z,15.80
2022-12-28T19:10:31.261Z,12.57
2022-12-28T19:13:01.216Z,10.93
2022-12-28T19:15:33.968Z,16.33
2022-12-28T19:18:04.048Z,17.93
2022-12-28T19:20:34.040Z,15.10
2022-12-28T19:23:04.004Z,13.63
2022-12-28T19:25:34.116Z,10.90
2022-12-28T19:28:04.139Z,13.70
2022-12-28T19:30:37.004Z,10.20
2022-12-28T19:33:07.089Z,19.30
2022-12-28T19:35:37.080Z,14.90
2022-12-28T19:38:07.079Z,15.23
2022-12-28T19:40:37.068Z,13.70
2022-12-28T19:43:07.102Z,12.33
2022-12-28T19:45:39.606Z,11.80
2022-12-28T19:48:09.727Z,10.53
2022-12-28T19:50:39.709Z,15.63
2022-12-28T19:53:09.733Z,15.27
2022-12-28T19:55:39.864Z,21.57
2022-12-28T19:58:09.848Z,35.17
2022-12-28T20:00:42.853Z,21.33
2022-12-28T20:03:13.305Z,18.87
2022-12-28T20:05:44.237Z,16.40
2022-12-28T20:08:14.556Z,13.10
2022-12-28T20:10:44.635Z,18.07
2022-12-28T20:13:15.039Z,20.33
2022-12-28T20:15:47.684Z,17.97
2022-12-28T20:18:17.710Z,20.50
2022-12-28T20:21:17.915Z,16.17
2022-12-28T20:23:39.211Z,10.83
2022-12-28T20:26:10.476Z,17.77
2022-12-28T20:28:40.702Z,15.27
2022-12-28T20:31:17.197Z,15.17
2022-12-28T20:33:48.345Z,12.67
2022-12-28T20:36:22.136Z,15.60
2022-12-28T20:38:53.138Z,15.53
2022-12-28T20:41:43.846Z,24.30
2022-12-28T20:44:16.998Z,27.17
2022-12-28T20:46:49.607Z,22.13
2022-12-28T20:49:19.654Z,21.60
2022-12-28T20:51:49.918Z,21.80
2022-12-28T20:54:19.926Z,23.97
2022-12-28T20:56:54.789Z,27.90
2022-12-28T20:59:26.983Z,18.57
2022-12-28T21:01:59.651Z,19.87
2022-12-28T21:04:30.004Z,20.27
2022-12-28T21:07:00.383Z,25.57
2022-12-28T21:09:30.304Z,17.33
2022-12-28T21:12:00.271Z,15.43
2022-12-28T21:14:30.187Z,17.53
2022-12-28T21:17:02.756Z,14.47
2022-12-28T21:19:32.685Z,23.53
2022-12-28T21:22:03.107Z,14.23
2022-12-28T21:24:33.757Z,15.00
2022-12-28T21:27:04.244Z,15.37
2022-12-28T21:29:34.319Z,18.60
2022-12-28T21:32:09.429Z,14.17
2022-12-28T21:34:39.431Z,13.37
2022-12-28T21:37:21.803Z,13.97
2022-12-28T21:39:51.880Z,13.30
2022-12-28T21:42:21.865Z,16.30
2022-12-28T21:44:52.130Z,12.27
2022-12-28T21:47:24.703Z,10.10
2022-12-28T21:49:55.443Z,14.80
2022-12-28T21:52:25.756Z,10.20
2022-12-28T21:54:55.690Z,13.23
2022-12-28T21:57:25.718Z,10.60
2022-12-28T21:59:55.809Z,11.97
2022-12-28T22:02:56.075Z,11.27
2022-12-28T22:05:38.719Z,11.70
2022-12-28T22:08:21.038Z,8.90
2022-12-28T22:11:04.479Z,10.13
2022-12-28T22:13:34.422Z,11.73
2022-12-28T22:16:04.512Z,11.40
2022-12-28T22:19:00.903Z,8.30
2022-12-28T22:21:27.680Z,6.90
2022-12-28T22:23:58.133Z,9.70
2022-12-28T22:26:28.223Z,10.57
2022-12-28T22:28:58.141Z,6.37
2022-12-28T22:31:28.122Z,9.13
2022-12-28T22:34:06.795Z,10.30
2022-12-28T22:36:37.418Z,10.77
2022-12-28T22:39:07.470Z,17.03
2022-12-28T22:41:37.510Z,9.00
2022-12-28T22:44:07.963Z,8.80
2022-12-28T22:46:37.925Z,7.67
2022-12-28T22:49:10.459Z,8.13
2022-12-28T22:51:40.983Z,8.37
2022-12-28T22:54:11.298Z,7.03
2022-12-28T22:56:41.295Z,8.53
2022-12-28T22:59:15.495Z,8.20
2022-12-28T23:01:48.280Z,10.60
2022-12-28T23:04:21.573Z,6.97
2022-12-28T23:06:51.534Z,8.83
2022-12-28T23:09:21.544Z,7.70
2022-12-28T23:11:52.334Z,8.90
2022-12-28T23:14:42.666Z,6.83
2022-12-28T23:17:17.249Z,8.83
2022-12-28T23:20:02.655Z,7.57
2022-12-28T23:22:48.586Z,9.43
2022-12-28T23:25:34.556Z,12.37
2022-12-28T23:28:08.201Z,14.50
2022-12-28T23:30:40.840Z,12.90
2022-12-28T23:33:10.996Z,10.17
2022-12-28T23:35:43.536Z,7.67
2022-12-28T23:38:14.018Z,9.27
2022-12-28T23:40:44.607Z,8.40
2022-12-28T23:43:14.651Z,6.60
2022-12-28T23:45:44.729Z,5.27
2022-12-28T23:48:14.972Z,6.10
2022-12-28T23:50:47.584Z,9.33
2022-12-28T23:53:17.752Z,10.50
2022-12-28T23:55:47.763Z,5.03
2022-12-28T23:58:17.794Z,5.93
